createdAt,value
2023-08-17T00:00:06.967Z,19.08
2023-08-17T00:02:34.159Z,19.07
2023-08-17T00:05:01.905Z,19.08
2023-08-17T00:07:29.162Z,19.08
2023-08-17T00:09:56.426Z,19.09
2023-08-17T00:12:23.683Z,19.09
2023-08-17T00:14:51.842Z,19.06
2023-08-17T00:17:20.121Z,19.03
2023-08-17T00:19:47.444Z,18.98
2023-08-17T00:22:14.798Z,18.94
2023-08-17T00:24:45.400Z,18.87
2023-08-17T00:27:12.725Z,18.83
2023-08-17T00:29:40.018Z,18.81
2023-08-17T00:32:07.363Z,18.80
2023-08-17T00:34:36.930Z,18.80
2023-08-17T00:37:04.463Z,18.77
2023-08-17T00:39:31.729Z,18.71
2023-08-17T00:41:59.045Z,18.68
2023-08-17T00:44:26.322Z,18.63
2023-08-17T00:46:53.665Z,18.61
2023-08-17T00:49:20.938Z,18.60
2023-08-17T00:51:48.267Z,18.61
2023-08-17T00:57:01.230Z,18.58
2023-08-17T00:59:33.079Z,18.56
2023-08-17T01:02:04.593Z,18.54
2023-08-17T01:04:32.824Z,18.51
2023-08-17T01:07:00.164Z,18.49
2023-08-17T01:09:28.164Z,18.47
2023-08-17T01:12:00.862Z,18.46
2023-08-17T01:14:40.212Z,18.45
2023-08-17T01:17:26.660Z,18.39
2023-08-17T01:19:54.063Z,18.35
2023-08-17T01:22:22.614Z,18.33
2023-08-17T01:24:49.964Z,18.33
2023-08-17T01:27:17.250Z,18.33
2023-08-17T01:29:44.525Z,18.35
2023-08-17T01:32:17.257Z,18.35
2023-08-17T01:34:48.771Z,18.30
2023-08-17T01:37:16.069Z,18.28
2023-08-17T01:39:45.068Z,18.26
2023-08-17T01:42:13.562Z,18.26
2023-08-17T01:44:41.024Z,18.26
2023-08-17T01:47:08.462Z,18.26
2023-08-17T01:49:35.806Z,18.22
2023-08-17T01:52:03.753Z,18.17
2023-08-17T01:54:31.109Z,18.11
2023-08-17T01:56:58.412Z,18.07
2023-08-17T01:59:25.769Z,18.07
2023-08-17T02:01:53.136Z,18.05
2023-08-17T02:04:20.455Z,18.03
2023-08-17T02:06:47.762Z,18.01
2023-08-17T02:09:15.048Z,17.98
2023-08-17T02:11:42.352Z,17.97
2023-08-17T02:14:09.681Z,17.97
2023-08-17T02:16:37.234Z,17.94
2023-08-17T02:19:04.748Z,17.92
2023-08-17T02:21:32.017Z,17.91
2023-08-17T02:23:59.360Z,17.90
2023-08-17T02:26:26.648Z,17.89
2023-08-17T02:28:53.932Z,17.90
2023-08-17T02:31:21.271Z,17.90
2023-08-17T02:33:48.960Z,17.89
2023-08-17T02:36:16.262Z,17.87
2023-08-17T02:38:43.781Z,17.85
2023-08-17T02:41:11.063Z,17.84
2023-08-17T02:43:38.359Z,17.82
2023-08-17T02:46:08.260Z,17.78
2023-08-17T02:48:35.761Z,17.75
2023-08-17T02:51:04.155Z,17.75
2023-08-17T02:53:31.528Z,17.76
2023-08-17T02:55:58.865Z,17.75
2023-08-17T02:58:26.355Z,17.74
2023-08-17T03:00:54.894Z,17.72
2023-08-17T03:03:22.253Z,17.70
2023-08-17T03:05:50.800Z,17.67
2023-08-17T03:08:18.139Z,17.64
2023-08-17T03:10:45.414Z,17.59
2023-08-17T03:13:12.736Z,17.49
2023-08-17T03:15:41.399Z,17.41
2023-08-17T03:18:09.487Z,17.38
2023-08-17T03:20:38.043Z,17.35
2023-08-17T03:23:09.440Z,17.35
2023-08-17T03:25:38.836Z,17.38
2023-08-17T03:28:07.667Z,17.43
2023-08-17T03:30:35.556Z,17.45
2023-08-17T03:33:02.963Z,17.47
2023-08-17T03:35:31.067Z,17.51
2023-08-17T03:37:58.319Z,17.57
2023-08-17T03:40:25.611Z,17.62
2023-08-17T03:42:52.968Z,17.68
2023-08-17T03:45:20.559Z,17.70
2023-08-17T03:47:50.381Z,17.74
2023-08-17T03:50:18.032Z,17.79
2023-08-17T03:52:45.300Z,17.84
2023-08-17T03:55:15.372Z,17.89
2023-08-17T03:57:42.806Z,17.93
2023-08-17T04:00:11.469Z,17.98
2023-08-17T04:02:41.950Z,18.03
2023-08-17T04:05:10.335Z,18.08
2023-08-17T04:07:38.197Z,18.14
2023-08-17T04:10:09.344Z,18.19
2023-08-17T04:12:36.661Z,18.28
2023-08-17T04:15:04.719Z,18.40
2023-08-17T04:17:32.160Z,18.55
2023-08-17T04:20:00.173Z,18.70
2023-08-17T04:22:28.005Z,18.86
2023-08-17T04:24:55.376Z,19.05
2023-08-17T04:27:23.149Z,19.22
2023-08-17T04:29:50.448Z,19.39
2023-08-17T04:32:17.879Z,19.63
2023-08-17T04:34:46.398Z,20.01
2023-08-17T04:37:15.703Z,20.51
2023-08-17T04:39:44.502Z,20.95
2023-08-17T04:42:13.869Z,21.27
2023-08-17T04:44:41.182Z,21.56
2023-08-17T04:47:08.803Z,21.79
2023-08-17T04:49:36.183Z,21.92
2023-08-17T04:52:03.846Z,21.98
2023-08-17T04:54:31.333Z,22.01
2023-08-17T04:56:58.974Z,22.02
2023-08-17T04:59:26.239Z,22.00
2023-08-17T05:01:55.898Z,21.98
2023-08-17T05:04:23.461Z,21.97
2023-08-17T05:06:50.938Z,21.97
2023-08-17T05:09:18.344Z,22.00
2023-08-17T05:11:46.528Z,22.04
2023-08-17T05:14:13.876Z,22.09
2023-08-17T05:16:41.283Z,22.14
2023-08-17T05:19:08.642Z,22.19
2023-08-17T05:21:36.288Z,22.25
2023-08-17T05:24:04.508Z,22.31
2023-08-17T05:26:32.851Z,22.37
2023-08-17T05:29:01.353Z,22.42
2023-08-17T05:31:28.794Z,22.47
2023-08-17T05:33:56.547Z,22.49
2023-08-17T05:36:25.130Z,22.53
2023-08-17T05:38:53.051Z,22.57
2023-08-17T05:41:20.383Z,22.63
2023-08-17T05:43:49.783Z,22.70
2023-08-17T05:46:17.134Z,22.77
2023-08-17T05:48:44.488Z,22.83
2023-08-17T05:51:11.974Z,22.89
2023-08-17T05:53:39.262Z,22.95
2023-08-17T05:56:06.563Z,23.02
2023-08-17T05:58:33.895Z,23.09
2023-08-17T06:01:08.765Z,23.16
2023-08-17T06:03:37.233Z,23.23
2023-08-17T06:06:05.227Z,23.28
2023-08-17T06:08:32.589Z,23.34
2023-08-17T06:10:59.912Z,23.39
2023-08-17T06:13:27.204Z,23.44
2023-08-17T06:15:57.802Z,23.48
2023-08-17T06:18:26.224Z,23.52
2023-08-17T06:20:54.930Z,23.57
2023-08-17T06:23:22.513Z,23.63
2023-08-17T06:25:49.876Z,23.66
2023-08-17T06:28:17.229Z,23.68
2023-08-17T06:30:44.539Z,23.70
2023-08-17T06:33:11.915Z,23.71
2023-08-17T06:35:39.265Z,23.75
2023-08-17T06:38:07.636Z,23.80
2023-08-17T06:40:34.935Z,23.85
2023-08-17T06:43:02.270Z,23.90
2023-08-17T06:45:29.602Z,23.95
2023-08-17T06:47:56.912Z,23.99
2023-08-17T06:50:24.285Z,24.02
2023-08-17T06:52:51.696Z,24.06
2023-08-17T06:55:19.293Z,24.12
2023-08-17T06:57:46.907Z,24.17
2023-08-17T07:00:15.002Z,24.18
2023-08-17T07:02:53.303Z,24.20
2023-08-17T07:05:21.745Z,24.22
2023-08-17T07:07:49.264Z,24.27
2023-08-17T07:10:16.619Z,24.30
2023-08-17T07:12:44.107Z,24.36
2023-08-17T07:15:11.668Z,24.43
2023-08-17T07:17:38.983Z,24.50
2023-08-17T07:20:16.447Z,24.57
2023-08-17T07:22:44.859Z,24.63
2023-08-17T07:25:12.215Z,24.70
2023-08-17T07:27:39.473Z,24.76
2023-08-17T07:30:08.925Z,24.82
2023-08-17T07:32:36.334Z,24.91
2023-08-17T07:35:04.623Z,24.99
2023-08-17T07:37:35.332Z,25.05
2023-08-17T07:40:04.941Z,25.13
2023-08-17T07:42:32.644Z,25.20
2023-08-17T07:45:00.308Z,25.26
2023-08-17T07:47:28.303Z,25.31
2023-08-17T07:49:55.925Z,25.35
2023-08-17T07:52:23.291Z,25.40
2023-08-17T07:54:50.614Z,25.46
2023-08-17T07:57:17.999Z,25.53
2023-08-17T07:59:45.549Z,25.59
2023-08-17T08:02:12.883Z,25.66
2023-08-17T08:04:40.245Z,25.70
2023-08-17T08:07:07.548Z,25.77
2023-08-17T08:09:34.853Z,25.81
2023-08-17T08:12:02.963Z,25.87
2023-08-17T08:14:30.763Z,25.92
2023-08-17T08:16:58.096Z,26.00
2023-08-17T08:19:25.414Z,26.09
2023-08-17T08:21:52.733Z,26.13
2023-08-17T08:24:36.568Z,26.11
2023-08-17T08:27:05.719Z,26.08
2023-08-17T08:29:33.074Z,26.12
2023-08-17T08:32:01.007Z,26.18
2023-08-17T08:34:28.543Z,26.24
2023-08-17T08:36:56.079Z,26.25
2023-08-17T08:39:23.467Z,26.23
2023-08-17T08:41:50.761Z,26.22
2023-08-17T08:44:18.161Z,26.24
2023-08-17T08:46:45.785Z,26.30
2023-08-17T08:49:13.446Z,26.40
2023-08-17T08:51:43.950Z,26.49
2023-08-17T08:54:14.396Z,26.57
2023-08-17T08:56:47.763Z,26.65
2023-08-17T08:59:16.636Z,26.74
2023-08-17T09:01:44.023Z,26.82
2023-08-17T09:04:11.468Z,26.89
2023-08-17T09:06:38.931Z,26.94
2023-08-17T09:09:06.192Z,27.00
2023-08-17T09:11:33.604Z,27.08
2023-08-17T09:14:00.939Z,27.15
2023-08-17T09:16:28.674Z,27.21
2023-08-17T09:18:56.098Z,27.27
2023-08-17T09:21:24.361Z,27.31
2023-08-17T09:26:25.709Z,27.40
2023-08-17T09:28:55.285Z,27.43
2023-08-17T09:31:22.839Z,27.44
2023-08-17T09:33:53.680Z,27.44
2023-08-17T09:36:25.739Z,27.40
2023-08-17T09:38:53.156Z,27.37
2023-08-17T09:41:20.466Z,27.36
2023-08-17T09:43:48.330Z,27.36
2023-08-17T09:46:15.973Z,27.31
2023-08-17T09:48:46.790Z,27.31
2023-08-17T09:51:17.267Z,27.34
2023-08-17T09:53:44.610Z,27.40
2023-08-17T09:56:17.547Z,27.45
2023-08-17T09:58:45.552Z,27.51
2023-08-17T10:01:14.712Z,27.57
2023-08-17T10:03:48.064Z,27.63
2023-08-17T10:06:16.453Z,27.66
2023-08-17T10:08:45.073Z,27.64
2023-08-17T10:11:13.233Z,27.57
2023-08-17T10:13:46.371Z,27.55
2023-08-17T10:16:46.748Z,27.55
2023-08-17T10:19:14.139Z,27.55
2023-08-17T10:21:45.430Z,27.58
2023-08-17T10:24:12.721Z,27.62
2023-08-17T10:26:40.280Z,27.63
2023-08-17T10:29:15.286Z,27.61
2023-08-17T10:31:47.864Z,27.54
2023-08-17T10:34:16.225Z,27.46
2023-08-17T10:36:43.588Z,27.41
2023-08-17T10:39:28.265Z,27.43
2023-08-17T10:41:57.468Z,27.46
2023-08-17T10:44:46.867Z,27.44
2023-08-17T10:50:05.407Z,27.56
2023-08-17T10:52:35.556Z,27.63
2023-08-17T10:55:06.424Z,27.68
2023-08-17T10:57:38.182Z,27.76
2023-08-17T11:00:21.144Z,27.83
2023-08-17T11:03:06.940Z,27.91
2023-08-17T11:05:49.531Z,27.96
2023-08-17T11:08:23.826Z,28.01
2023-08-17T11:11:04.304Z,27.99
2023-08-17T11:13:32.832Z,27.95
2023-08-17T11:16:03.382Z,27.97
2023-08-17T11:18:34.362Z,28.01
2023-08-17T11:21:05.551Z,28.06
2023-08-17T11:23:34.730Z,28.11
2023-08-17T11:26:02.417Z,28.13
2023-08-17T11:28:43.264Z,28.10
2023-08-17T11:31:12.343Z,28.06
2023-08-17T11:33:40.102Z,28.05
2023-08-17T11:36:08.776Z,28.08
2023-08-17T11:38:38.996Z,28.13
2023-08-17T11:41:07.136Z,28.17
2023-08-17T11:43:35.157Z,28.23
2023-08-17T11:46:02.811Z,28.27
2023-08-17T11:51:03.809Z,28.32
2023-08-17T11:53:35.889Z,28.33
2023-08-17T11:56:05.967Z,28.29
2023-08-17T11:58:45.676Z,28.28
2023-08-17T12:01:13.945Z,28.29
2023-08-17T12:03:44.679Z,28.31
2023-08-17T12:06:14.658Z,28.34
2023-08-17T12:08:47.672Z,28.32
2023-08-17T12:11:19.606Z,28.25
2023-08-17T12:13:54.703Z,28.19
2023-08-17T12:16:22.877Z,28.19
2023-08-17T12:18:51.201Z,28.20
2023-08-17T12:21:21.719Z,28.21
2023-08-17T12:23:49.348Z,28.19
2023-08-17T12:26:21.237Z,28.17
2023-08-17T12:28:48.873Z,28.16
2023-08-17T12:31:21.668Z,28.15
2023-08-17T12:33:49.016Z,28.17
2023-08-17T12:36:16.308Z,28.22
2023-08-17T12:38:46.190Z,28.26
2023-08-17T12:41:13.611Z,28.28
2023-08-17T12:43:40.904Z,28.29
2023-08-17T12:46:08.295Z,28.31
2023-08-17T12:48:36.498Z,28.35
2023-08-17T12:51:05.436Z,28.37
2023-08-17T12:53:33.216Z,28.37
2023-08-17T12:56:00.637Z,28.36
2023-08-17T12:58:27.966Z,28.38
2023-08-17T13:00:58.295Z,28.39
2023-08-17T13:03:25.692Z,28.37
2023-08-17T13:05:53.083Z,28.32
2023-08-17T13:08:20.474Z,28.31
2023-08-17T13:10:47.814Z,28.32
2023-08-17T13:14:02.862Z,28.30
2023-08-17T13:16:30.268Z,28.24
2023-08-17T13:18:57.582Z,28.21
2023-08-17T13:21:24.882Z,28.19
2023-08-17T13:23:52.232Z,28.21
2023-08-17T13:26:19.541Z,28.23
2023-08-17T13:28:46.880Z,28.23
2023-08-17T13:31:23.859Z,28.23
2023-08-17T13:33:52.617Z,28.23
2023-08-17T13:36:20.140Z,28.23
2023-08-17T13:38:47.499Z,28.20
2023-08-17T13:41:14.826Z,28.17
2023-08-17T13:43:42.317Z,28.16
2023-08-17T13:46:09.720Z,28.16
2023-08-17T13:48:37.143Z,28.14
2023-08-17T13:51:04.512Z,28.13
2023-08-17T13:53:31.913Z,28.12
2023-08-17T13:55:59.241Z,28.11
2023-08-17T13:58:26.518Z,28.12
2023-08-17T14:00:53.848Z,28.13
2023-08-17T14:03:21.225Z,28.14
2023-08-17T14:05:48.737Z,28.16
2023-08-17T14:08:16.003Z,28.18
2023-08-17T14:10:43.367Z,28.18
2023-08-17T14:13:10.659Z,28.18
2023-08-17T14:15:37.985Z,28.11
2023-08-17T14:18:06.018Z,28.07
2023-08-17T14:27:35.282Z,28.05
2023-08-17T14:30:03.480Z,28.01
2023-08-17T14:32:35.378Z,28.01
2023-08-17T14:35:03.220Z,27.98
2023-08-17T14:37:30.800Z,27.97
2023-08-17T14:39:58.494Z,27.97
2023-08-17T14:42:27.071Z,27.96
2023-08-17T14:44:54.597Z,27.96
2023-08-17T14:47:21.973Z,27.95
2023-08-17T14:49:49.360Z,27.95
2023-08-17T14:52:16.701Z,27.93
2023-08-17T14:54:43.988Z,27.92
2023-08-17T14:57:11.337Z,27.92
2023-08-17T14:59:38.726Z,27.91
2023-08-17T15:02:06.105Z,27.89
2023-08-17T15:04:34.304Z,27.86
2023-08-17T15:07:01.596Z,27.85
2023-08-17T15:09:28.888Z,27.84
2023-08-17T15:11:56.188Z,27.82
2023-08-17T15:14:23.498Z,27.79
2023-08-17T15:16:50.814Z,27.76
2023-08-17T15:19:30.625Z,27.74
2023-08-17T15:22:05.435Z,27.71
2023-08-17T15:24:32.797Z,27.68
2023-08-17T15:27:00.079Z,27.65
2023-08-17T15:29:27.366Z,27.62
2023-08-17T15:31:54.691Z,27.59
2023-08-17T15:34:22.006Z,27.58
2023-08-17T15:36:49.320Z,27.54
2023-08-17T15:39:16.700Z,27.51
2023-08-17T15:41:44.000Z,27.50
2023-08-17T15:44:11.277Z,27.48
2023-08-17T15:46:38.721Z,27.45
2023-08-17T15:49:06.830Z,27.43
2023-08-17T15:51:34.083Z,27.40
2023-08-17T15:54:01.437Z,27.36
2023-08-17T15:56:28.727Z,27.33
2023-08-17T15:58:56.052Z,27.29
2023-08-17T16:01:23.384Z,27.26
2023-08-17T16:03:50.763Z,27.24
2023-08-17T16:06:18.084Z,27.22
2023-08-17T16:11:15.667Z,27.16
2023-08-17T16:13:46.360Z,27.13
2023-08-17T16:16:14.440Z,27.08
2023-08-17T16:18:41.785Z,27.03
2023-08-17T16:21:14.371Z,26.99
2023-08-17T16:23:45.303Z,26.95
2023-08-17T16:26:12.652Z,26.90
2023-08-17T16:28:39.916Z,26.86
2023-08-17T16:31:07.312Z,26.82
2023-08-17T16:33:34.611Z,26.79
2023-08-17T16:36:02.056Z,26.74
2023-08-17T16:38:29.341Z,26.69
2023-08-17T16:40:56.622Z,26.63
2023-08-17T16:43:24.147Z,26.58
2023-08-17T16:45:51.590Z,26.51
2023-08-17T16:50:51.508Z,26.37
2023-08-17T16:53:18.833Z,26.30
2023-08-17T16:55:54.152Z,26.23
2023-08-17T16:58:22.654Z,26.15
2023-08-17T17:00:49.976Z,26.08
2023-08-17T17:03:17.266Z,26.01
2023-08-17T17:05:44.670Z,25.93
2023-08-17T17:08:12.061Z,25.86
2023-08-17T17:10:39.333Z,25.79
2023-08-17T17:13:06.655Z,25.72
2023-08-17T17:15:34.025Z,25.63
2023-08-17T17:18:01.515Z,25.53
2023-08-17T17:20:28.939Z,25.42
2023-08-17T17:22:56.588Z,25.30
2023-08-17T17:25:23.963Z,25.19
2023-08-17T17:27:51.298Z,25.08
2023-08-17T17:30:18.636Z,24.97
2023-08-17T17:32:45.973Z,24.84
2023-08-17T17:35:13.339Z,24.72
2023-08-17T17:37:40.606Z,24.61
2023-08-17T17:40:10.198Z,24.49
2023-08-17T17:42:37.525Z,24.36
2023-08-17T17:45:05.228Z,24.23
2023-08-17T17:47:36.001Z,24.11
2023-08-17T17:50:07.853Z,24.00
2023-08-17T17:52:35.328Z,23.88
2023-08-17T17:55:03.807Z,23.72
2023-08-17T17:57:31.434Z,23.60
2023-08-17T17:59:59.214Z,23.51
2023-08-17T18:02:27.112Z,23.43
2023-08-17T18:04:54.445Z,23.34
2023-08-17T18:07:21.710Z,23.25
2023-08-17T18:09:49.021Z,23.19
2023-08-17T18:12:16.303Z,23.10
2023-08-17T18:14:45.051Z,23.04
2023-08-17T18:17:12.364Z,22.94
2023-08-17T18:19:41.144Z,22.86
2023-08-17T18:22:08.882Z,22.78
2023-08-17T18:24:36.243Z,22.73
2023-08-17T18:27:03.574Z,22.69
2023-08-17T18:29:30.954Z,22.61
2023-08-17T18:31:58.300Z,22.56
2023-08-17T18:34:25.646Z,22.51
2023-08-17T18:36:52.937Z,22.47
2023-08-17T18:39:20.263Z,22.42
2023-08-17T18:41:47.534Z,22.37
2023-08-17T18:44:14.817Z,22.31
2023-08-17T18:46:42.112Z,22.23
2023-08-17T18:49:09.515Z,22.14
2023-08-17T18:51:36.822Z,22.04
2023-08-17T18:54:04.720Z,21.95
2023-08-17T18:56:32.224Z,21.87
2023-08-17T18:58:59.900Z,21.80
2023-08-17T19:01:27.273Z,21.76
2023-08-17T19:03:54.656Z,21.73
2023-08-17T19:06:22.032Z,21.70
2023-08-17T19:08:49.375Z,21.68
2023-08-17T19:11:17.221Z,21.65
2023-08-17T19:13:44.547Z,21.60
2023-08-17T19:16:11.902Z,21.55
2023-08-17T19:18:46.271Z,21.50
2023-08-17T19:21:13.687Z,21.44
2023-08-17T19:23:41.124Z,21.38
2023-08-17T19:26:10.120Z,21.31
2023-08-17T19:28:37.853Z,21.22
2023-08-17T19:31:05.143Z,21.14
2023-08-17T19:33:32.600Z,21.10
2023-08-17T19:35:59.932Z,21.06
2023-08-17T19:38:27.202Z,21.04
2023-08-17T19:40:54.541Z,21.01
2023-08-17T19:43:21.864Z,20.97
2023-08-17T19:45:50.275Z,20.94
2023-08-17T19:48:18.857Z,20.92
2023-08-17T19:50:46.338Z,20.89
2023-08-17T19:53:13.717Z,20.86
2023-08-17T19:55:41.072Z,20.83
2023-08-17T19:58:08.477Z,20.78
2023-08-17T20:00:37.691Z,20.73
2023-08-17T20:03:05.913Z,20.68
2023-08-17T20:05:33.380Z,20.65
2023-08-17T20:08:00.655Z,20.63
2023-08-17T20:10:27.961Z,20.61
2023-08-17T20:12:55.334Z,20.59
2023-08-17T20:15:23.113Z,20.57
2023-08-17T20:17:50.476Z,20.53
2023-08-17T20:20:18.057Z,20.51
2023-08-17T20:22:45.478Z,20.49
2023-08-17T20:25:13.946Z,20.44
2023-08-17T20:27:44.647Z,20.40
2023-08-17T20:30:13.131Z,20.34
2023-08-17T20:32:40.466Z,20.30
2023-08-17T20:35:08.889Z,20.27
2023-08-17T20:37:36.527Z,20.22
2023-08-17T20:40:05.756Z,20.13
2023-08-17T20:42:33.380Z,20.06
2023-08-17T20:45:00.762Z,20.04
2023-08-17T20:47:28.262Z,20.03
2023-08-17T20:49:59.459Z,20.02
2023-08-17T20:52:26.854Z,20.02
2023-08-17T20:54:54.171Z,19.99
2023-08-17T20:57:22.398Z,19.97
2023-08-17T20:59:49.726Z,19.94
2023-08-17T21:02:17.168Z,19.89
2023-08-17T21:04:44.596Z,19.86
2023-08-17T21:07:14.613Z,19.84
2023-08-17T21:09:42.670Z,19.81
2023-08-17T21:12:10.624Z,19.79
2023-08-17T21:14:37.966Z,19.78
2023-08-17T21:17:05.291Z,19.77
2023-08-17T21:19:33.252Z,19.76
2023-08-17T21:22:00.951Z,19.73
2023-08-17T21:24:28.282Z,19.69
2023-08-17T21:26:55.636Z,19.69
2023-08-17T21:29:24.265Z,19.69
2023-08-17T21:31:52.859Z,19.69
2023-08-17T21:34:21.020Z,19.68
2023-08-17T21:36:48.664Z,19.68
2023-08-17T21:39:16.059Z,19.67
2023-08-17T21:41:47.523Z,19.66
2023-08-17T21:44:14.780Z,19.66
2023-08-17T21:46:42.178Z,19.67
2023-08-17T21:49:09.570Z,19.68
2023-08-17T21:51:37.021Z,19.69
2023-08-17T21:54:06.182Z,19.70
2023-08-17T21:56:35.869Z,19.71
2023-08-17T21:59:04.588Z,19.73
2023-08-17T22:01:32.242Z,19.75
2023-08-17T22:03:59.708Z,19.76
2023-08-17T22:06:27.500Z,19.78
2023-08-17T22:08:54.989Z,19.79
2023-08-17T22:11:22.414Z,19.79
2023-08-17T22:13:49.699Z,19.77
2023-08-17T22:16:17.227Z,19.75
2023-08-17T22:18:44.736Z,19.71
2023-08-17T22:21:12.027Z,19.69
2023-08-17T22:23:39.312Z,19.68
2023-08-17T22:26:08.218Z,19.68
2023-08-17T22:28:35.736Z,19.68
2023-08-17T22:31:04.853Z,19.68
2023-08-17T22:33:32.305Z,19.69
2023-08-17T22:35:59.586Z,19.69
2023-08-17T22:38:27.145Z,19.70
2023-08-17T22:40:54.474Z,19.71
2023-08-17T22:43:21.826Z,19.72
2023-08-17T22:45:49.845Z,19.73
2023-08-17T22:48:17.873Z,19.73
2023-08-17T22:50:46.047Z,19.74
2023-08-17T22:53:13.354Z,19.72
2023-08-17T22:55:40.983Z,19.68
2023-08-17T22:58:08.654Z,19.63
2023-08-17T23:00:37.127Z,19.58
2023-08-17T23:03:04.752Z,19.53
2023-08-17T23:05:32.218Z,19.49
2023-08-17T23:07:59.547Z,19.46
2023-08-17T23:10:27.776Z,19.43
2023-08-17T23:12:55.023Z,19.40
2023-08-17T23:15:22.408Z,19.37
2023-08-17T23:17:49.845Z,19.34
2023-08-17T23:20:17.471Z,19.31
2023-08-17T23:22:44.753Z,19.30
2023-08-17T23:25:12.114Z,19.27
2023-08-17T23:27:39.930Z,19.22
2023-08-17T23:30:08.045Z,19.18
2023-08-17T23:32:35.477Z,19.13
2023-08-17T23:35:02.905Z,19.06
2023-08-17T23:37:30.870Z,18.96
2023-08-17T23:39:58.670Z,18.86
2023-08-17T23:42:25.937Z,18.80
2023-08-17T23:44:53.179Z,18.78
2023-08-17T23:47:20.619Z,18.78
2023-08-17T23:49:47.929Z,18.78
2023-08-17T23:52:15.261Z,18.76
2023-08-17T23:54:42.600Z,18.77
2023-08-17T23:57:09.880Z,18.78
2023-08-17T23:59:37.447Z,18.78
